createdAt,value
2023-07-08T00:02:12.588Z,97.48
2023-07-08T00:04:40.333Z,93.67
2023-07-08T00:07:08.063Z,91.33
2023-07-08T00:09:35.744Z,90.80
2023-07-08T00:12:03.384Z,90.01
2023-07-08T00:14:30.988Z,88.23
2023-07-08T00:17:00.023Z,87.63
2023-07-08T00:19:27.753Z,88.50
2023-07-08T00:21:55.398Z,87.07
2023-07-08T00:24:23.027Z,92.38
2023-07-08T00:26:50.769Z,96.85
2023-07-08T00:29:18.413Z,100.00
2023-07-08T00:31:46.061Z,100.00
2023-07-08T00:34:16.848Z,100.00
2023-07-08T00:36:46.182Z,100.00
2023-07-08T00:39:14.683Z,99.00
2023-07-08T00:41:43.277Z,97.39
2023-07-08T00:44:10.978Z,97.43
2023-07-08T00:46:49.350Z,95.65
2023-07-08T00:49:26.185Z,94.39
2023-07-08T00:51:53.887Z,91.79
2023-07-08T00:54:21.675Z,91.99
2023-07-08T00:56:50.067Z,91.88
2023-07-08T00:59:19.972Z,91.70
2023-07-08T01:01:47.636Z,91.99
2023-07-08T01:04:16.144Z,90.55
2023-07-08T01:06:46.477Z,90.98
2023-07-08T01:09:14.952Z,90.52
2023-07-08T01:11:42.774Z,89.79
2023-07-08T01:14:11.507Z,90.57
2023-07-08T01:16:40.221Z,90.47
2023-07-08T01:19:08.525Z,92.41
2023-07-08T01:21:36.889Z,91.51
2023-07-08T01:24:06.988Z,90.12
2023-07-08T01:26:35.668Z,89.78
2023-07-08T01:29:03.361Z,91.00
2023-07-08T01:31:31.055Z,88.63
2023-07-08T01:33:59.716Z,87.67
2023-07-08T01:36:27.378Z,88.00
2023-07-08T01:38:54.994Z,88.22
2023-07-08T01:41:24.085Z,89.03
2023-07-08T01:43:51.932Z,89.20
2023-07-08T01:46:20.234Z,86.92
2023-07-08T01:48:49.108Z,85.89
2023-07-08T01:51:16.765Z,85.86
2023-07-08T01:53:44.860Z,87.58
2023-07-08T01:56:12.958Z,88.54
2023-07-08T01:58:42.046Z,87.63
2023-07-08T02:01:09.931Z,85.82
2023-07-08T02:03:37.951Z,85.99
2023-07-08T02:06:06.078Z,85.25
2023-07-08T02:08:33.780Z,83.79
2023-07-08T02:11:01.692Z,84.54
2023-07-08T02:13:29.875Z,84.22
2023-07-08T02:15:59.177Z,85.28
2023-07-08T02:18:27.787Z,86.39
2023-07-08T02:20:56.866Z,85.19
2023-07-08T02:23:24.742Z,83.88
2023-07-08T02:25:52.745Z,83.36
2023-07-08T02:28:20.438Z,82.58
2023-07-08T02:30:48.170Z,84.42
2023-07-08T02:33:18.534Z,85.38
2023-07-08T02:35:46.790Z,84.84
2023-07-08T02:38:14.497Z,86.14
2023-07-08T02:40:42.155Z,86.89
2023-07-08T02:43:09.980Z,84.78
2023-07-08T02:45:38.217Z,84.27
2023-07-08T02:48:06.024Z,84.46
2023-07-08T02:50:34.980Z,83.77
2023-07-08T02:53:02.561Z,85.22
2023-07-08T02:55:30.184Z,85.49
2023-07-08T02:57:57.783Z,85.38
2023-07-08T03:00:25.418Z,86.07
2023-07-08T03:02:53.469Z,86.68
2023-07-08T03:05:21.105Z,87.97
2023-07-08T03:07:50.123Z,88.25
2023-07-08T03:10:17.760Z,88.05
2023-07-08T03:12:45.358Z,86.54
2023-07-08T03:15:13.638Z,88.64
2023-07-08T03:17:42.128Z,86.80
2023-07-08T03:20:11.440Z,86.54
2023-07-08T03:22:39.107Z,87.20
2023-07-08T03:25:10.429Z,86.06
2023-07-08T03:27:39.069Z,83.84
2023-07-08T03:30:07.603Z,83.33
2023-07-08T03:32:36.130Z,83.18
2023-07-08T03:35:04.043Z,83.23
2023-07-08T03:37:31.665Z,82.66
2023-07-08T03:39:59.556Z,86.18
2023-07-08T03:42:28.503Z,88.14
2023-07-08T03:44:56.484Z,86.67
2023-07-08T03:47:26.329Z,86.92
2023-07-08T03:49:54.111Z,85.39
2023-07-08T03:52:22.617Z,84.07
2023-07-08T03:54:50.251Z,81.67
2023-07-08T03:57:18.852Z,81.94
2023-07-08T03:59:49.854Z,81.92
2023-07-08T04:02:17.584Z,81.88
2023-07-08T04:04:45.347Z,83.39
2023-07-08T04:07:13.657Z,82.02
2023-07-08T04:09:41.288Z,80.14
2023-07-08T04:12:10.000Z,80.48
2023-07-08T04:14:37.585Z,80.20
2023-07-08T04:17:07.296Z,80.12
2023-07-08T04:19:34.884Z,79.11
2023-07-08T04:22:02.842Z,79.77
2023-07-08T04:24:30.700Z,81.04
2023-07-08T04:26:58.371Z,81.96
2023-07-08T04:29:26.371Z,82.54
2023-07-08T04:31:54.039Z,82.53
2023-07-08T04:34:22.967Z,83.92
2023-07-08T04:36:50.997Z,84.22
2023-07-08T04:39:19.351Z,82.37
2023-07-08T04:41:52.790Z,84.43
2023-07-08T04:44:21.035Z,84.51
2023-07-08T04:46:49.365Z,80.82
2023-07-08T04:49:17.046Z,83.04
2023-07-08T04:51:46.135Z,84.80
2023-07-08T04:54:13.875Z,84.21
2023-07-08T04:56:42.301Z,83.76
2023-07-08T04:59:10.372Z,83.06
2023-07-08T05:01:38.188Z,83.39
2023-07-08T05:04:07.299Z,82.56
2023-07-08T05:06:35.113Z,81.03
2023-07-08T05:09:04.481Z,82.30
2023-07-08T05:11:32.206Z,82.50
2023-07-08T05:14:00.102Z,80.64
2023-07-08T05:16:27.871Z,80.42
2023-07-08T05:18:55.508Z,81.42
2023-07-08T05:21:23.224Z,79.33
2023-07-08T05:23:51.348Z,79.55
2023-07-08T05:26:20.401Z,79.74
2023-07-08T05:28:48.062Z,77.25
2023-07-08T05:31:15.763Z,77.94
2023-07-08T05:33:43.563Z,78.56
2023-07-08T05:36:11.257Z,77.21
2023-07-08T05:38:39.467Z,77.14
2023-07-08T05:41:07.522Z,77.78
2023-07-08T05:43:36.523Z,78.54
2023-07-08T05:46:11.546Z,78.17
2023-07-08T05:48:40.577Z,77.94
2023-07-08T05:51:08.333Z,76.53
2023-07-08T05:53:35.972Z,78.11
2023-07-08T05:56:04.251Z,77.54
2023-07-08T05:58:31.973Z,78.25
2023-07-08T06:01:01.285Z,77.59
2023-07-08T06:03:29.279Z,77.60
2023-07-08T06:05:57.030Z,76.74
2023-07-08T06:08:24.709Z,75.75
2023-07-08T06:10:52.357Z,75.10
2023-07-08T06:13:20.029Z,76.25
2023-07-08T06:15:47.870Z,74.27
2023-07-08T06:18:17.165Z,74.76
2023-07-08T06:20:52.507Z,74.01
2023-07-08T06:23:20.254Z,72.58
2023-07-08T06:25:48.002Z,72.01
2023-07-08T06:28:15.669Z,71.75
2023-07-08T06:30:43.418Z,70.15
2023-07-08T06:33:12.612Z,71.88
2023-07-08T06:35:41.882Z,71.68
2023-07-08T06:38:09.700Z,70.96
2023-07-08T06:40:37.451Z,71.22
2023-07-08T06:43:05.284Z,69.03
2023-07-08T06:45:55.559Z,67.38
2023-07-08T06:48:25.657Z,67.25
2023-07-08T06:50:54.712Z,67.12
2023-07-08T06:53:22.386Z,67.79
2023-07-08T06:55:51.095Z,66.42
2023-07-08T06:58:18.783Z,67.04
2023-07-08T07:00:46.472Z,66.64
2023-07-08T07:03:14.349Z,67.03
2023-07-08T07:05:42.367Z,63.24
2023-07-08T07:08:11.466Z,64.83
2023-07-08T07:10:39.319Z,65.92
2023-07-08T07:13:07.103Z,65.28
2023-07-08T07:15:34.821Z,64.71
2023-07-08T07:18:02.575Z,65.37
2023-07-08T07:20:30.296Z,64.84
2023-07-08T07:22:57.975Z,63.78
2023-07-08T07:25:27.080Z,64.21
2023-07-08T07:27:54.767Z,63.95
2023-07-08T07:30:22.418Z,64.54
2023-07-08T07:32:50.144Z,63.00
2023-07-08T07:35:17.849Z,61.55
2023-07-08T07:37:45.578Z,62.35
2023-07-08T07:40:15.138Z,60.14
2023-07-08T07:42:44.602Z,60.92
2023-07-08T07:45:12.315Z,60.07
2023-07-08T07:47:40.071Z,60.68
2023-07-08T07:50:08.624Z,58.11
2023-07-08T07:52:36.392Z,55.47
2023-07-08T07:55:04.243Z,53.24
2023-07-08T07:57:32.027Z,55.91
2023-07-08T08:00:01.258Z,58.15
2023-07-08T08:02:29.435Z,58.17
2023-07-08T08:04:59.297Z,57.93
2023-07-08T08:07:26.982Z,58.59
2023-07-08T08:09:54.704Z,59.56
2023-07-08T08:12:23.654Z,56.47
2023-07-08T08:14:51.426Z,56.86
2023-07-08T08:17:20.699Z,58.02
2023-07-08T08:19:48.414Z,55.84
2023-07-08T08:22:16.442Z,58.75
2023-07-08T08:24:44.134Z,56.15
2023-07-08T08:27:11.865Z,55.37
2023-07-08T08:29:39.769Z,57.01
2023-07-08T08:32:07.734Z,57.28
2023-07-08T08:34:36.863Z,55.61
2023-07-08T08:37:07.210Z,55.52
2023-07-08T08:39:35.220Z,56.13
2023-07-08T08:42:03.732Z,54.05
2023-07-08T08:44:33.414Z,53.80
2023-07-08T08:47:03.500Z,51.96
2023-07-08T08:49:32.499Z,48.61
2023-07-08T08:52:01.750Z,46.21
2023-07-08T08:54:29.575Z,47.93
2023-07-08T08:56:59.615Z,48.69
2023-07-08T08:59:30.144Z,45.47
2023-07-08T09:01:57.984Z,44.11
2023-07-08T09:04:26.564Z,45.14
2023-07-08T09:06:54.438Z,42.98
2023-07-08T09:09:25.215Z,41.56
2023-07-08T09:11:54.114Z,41.08
2023-07-08T09:14:22.438Z,42.13
2023-07-08T09:16:52.508Z,42.12
2023-07-08T09:19:25.225Z,40.81
2023-07-08T09:21:55.386Z,41.48
2023-07-08T09:24:25.353Z,38.62
2023-07-08T09:26:53.201Z,37.14
2023-07-08T09:29:21.078Z,35.30
2023-07-08T09:31:49.142Z,37.55
2023-07-08T09:34:17.482Z,36.39
2023-07-08T09:36:45.878Z,37.70
2023-07-08T09:39:14.251Z,38.17
2023-07-08T09:41:58.126Z,36.45
2023-07-08T09:44:31.121Z,35.29
2023-07-08T09:46:59.723Z,34.78
2023-07-08T09:49:29.076Z,34.35
2023-07-08T09:52:00.140Z,36.86
2023-07-08T09:54:28.112Z,35.24
2023-07-08T09:57:05.314Z,36.22
2023-07-08T09:59:33.702Z,34.33
2023-07-08T10:02:02.391Z,35.45
2023-07-08T10:04:30.428Z,34.71
2023-07-08T10:06:58.162Z,34.74
2023-07-08T10:09:26.785Z,34.71
2023-07-08T10:11:55.743Z,34.93
2023-07-08T10:14:27.339Z,34.81
2023-07-08T10:16:55.065Z,33.07
2023-07-08T10:19:22.805Z,34.47
2023-07-08T10:21:53.845Z,35.02
2023-07-08T10:24:24.763Z,33.40
2023-07-08T10:26:54.831Z,34.53
2023-07-08T10:29:31.259Z,32.19
2023-07-08T10:32:02.027Z,34.72
2023-07-08T10:34:35.193Z,32.05
2023-07-08T10:37:04.747Z,33.10
2023-07-08T10:39:37.501Z,30.93
2023-07-08T10:42:07.283Z,31.73
2023-07-08T10:44:36.616Z,31.18
2023-07-08T10:47:08.387Z,31.75
2023-07-08T10:49:57.042Z,32.29
2023-07-08T10:52:28.859Z,31.55
2023-07-08T10:55:01.276Z,32.07
2023-07-08T10:57:37.035Z,31.61
2023-07-08T11:00:11.835Z,32.59
2023-07-08T11:02:57.671Z,32.59
2023-07-08T11:05:28.194Z,33.11
2023-07-08T11:07:56.755Z,31.27
2023-07-08T11:10:25.449Z,31.32
2023-07-08T11:12:53.529Z,31.23
2023-07-08T11:15:23.871Z,31.70
2023-07-08T11:17:53.679Z,33.02
2023-07-08T11:20:31.116Z,33.00
2023-07-08T11:22:59.624Z,33.04
2023-07-08T11:25:27.369Z,31.73
2023-07-08T11:27:58.938Z,31.44
2023-07-08T11:30:29.777Z,30.81
2023-07-08T11:33:01.238Z,30.59
2023-07-08T11:35:37.563Z,31.11
2023-07-08T11:38:11.790Z,31.07
2023-07-08T11:40:40.959Z,32.72
2023-07-08T11:43:08.812Z,31.31
2023-07-08T11:45:37.573Z,31.85
2023-07-08T11:48:09.114Z,31.37
2023-07-08T11:50:39.809Z,31.77
2023-07-08T11:53:11.564Z,31.90
2023-07-08T11:55:40.698Z,33.65
2023-07-08T11:58:09.081Z,32.36
2023-07-08T12:00:41.084Z,32.25
2023-07-08T12:03:22.706Z,32.77
2023-07-08T12:05:52.208Z,32.53
2023-07-08T12:08:20.527Z,31.83
2023-07-08T12:10:51.698Z,30.38
2023-07-08T12:13:22.425Z,30.57
2023-07-08T12:15:52.592Z,31.22
2023-07-08T12:18:24.539Z,31.03
2023-07-08T12:20:54.850Z,31.58
2023-07-08T12:23:23.670Z,31.54
2023-07-08T12:25:53.752Z,31.10
2023-07-08T12:28:21.735Z,30.42
2023-07-08T12:30:50.049Z,31.83
2023-07-08T12:33:18.522Z,32.06
2023-07-08T12:35:46.452Z,32.05
2023-07-08T12:38:19.108Z,31.00
2023-07-08T12:40:46.868Z,30.16
2023-07-08T12:43:14.692Z,31.09
2023-07-08T12:45:42.470Z,31.91
2023-07-08T12:48:10.615Z,32.15
2023-07-08T12:50:38.866Z,31.25
2023-07-08T12:53:10.531Z,31.26
2023-07-08T12:55:40.551Z,32.39
2023-07-08T12:58:10.199Z,31.82
2023-07-08T13:00:39.391Z,32.42
2023-07-08T13:03:07.571Z,31.28
2023-07-08T13:05:35.429Z,31.14
2023-07-08T13:08:03.582Z,30.57
2023-07-08T13:10:31.628Z,30.43
2023-07-08T13:13:01.974Z,29.90
2023-07-08T13:15:30.197Z,31.71
2023-07-08T13:17:57.975Z,30.13
2023-07-08T13:20:25.689Z,30.79
2023-07-08T13:22:58.847Z,32.25
2023-07-08T13:25:28.713Z,30.77
2023-07-08T13:27:56.838Z,30.70
2023-07-08T13:30:31.382Z,29.84
2023-07-08T13:32:59.978Z,31.62
2023-07-08T13:35:29.576Z,31.80
2023-07-08T13:38:00.332Z,30.96
2023-07-08T13:40:29.290Z,31.82
2023-07-08T13:42:57.234Z,32.53
2023-07-08T13:45:26.313Z,31.29
2023-07-08T13:48:02.532Z,32.07
2023-07-08T13:50:33.908Z,31.83
2023-07-08T13:53:02.100Z,32.42
2023-07-08T13:55:30.519Z,34.11
2023-07-08T13:57:58.779Z,31.65
2023-07-08T14:00:27.402Z,33.80
2023-07-08T14:02:59.097Z,33.42
2023-07-08T14:05:28.227Z,34.14
2023-07-08T14:07:56.756Z,33.44
2023-07-08T14:10:27.786Z,34.04
2023-07-08T14:12:55.729Z,33.79
2023-07-08T14:15:23.523Z,33.51
2023-07-08T14:17:52.440Z,34.57
2023-07-08T14:20:28.491Z,34.63
2023-07-08T14:23:00.734Z,34.82
2023-07-08T14:25:33.936Z,34.91
2023-07-08T14:28:01.897Z,35.78
2023-07-08T14:30:32.159Z,34.90
2023-07-08T14:33:00.484Z,35.48
2023-07-08T14:35:31.419Z,35.77
2023-07-08T14:38:04.534Z,35.69
2023-07-08T14:40:37.847Z,34.18
2023-07-08T14:43:07.033Z,33.84
2023-07-08T14:45:36.418Z,34.92
2023-07-08T14:48:04.428Z,34.13
2023-07-08T14:50:33.564Z,32.78
2023-07-08T14:53:07.089Z,33.66
2023-07-08T14:55:37.648Z,33.44
2023-07-08T14:58:05.424Z,34.76
2023-07-08T15:00:34.319Z,34.92
2023-07-08T15:03:03.496Z,34.96
2023-07-08T15:05:32.551Z,36.30
2023-07-08T15:08:00.718Z,35.88
2023-07-08T15:10:28.739Z,36.11
2023-07-08T15:12:58.070Z,35.23
2023-07-08T15:15:28.660Z,35.34
2023-07-08T15:17:56.434Z,36.13
2023-07-08T15:20:29.000Z,35.45
2023-07-08T15:22:56.835Z,36.36
2023-07-08T15:25:24.474Z,35.63
2023-07-08T15:27:54.724Z,35.80
2023-07-08T15:30:24.827Z,35.98
2023-07-08T15:32:52.932Z,36.48
2023-07-08T15:35:21.229Z,36.26
2023-07-08T15:37:51.078Z,36.21
2023-07-08T15:40:20.096Z,36.42
2023-07-08T15:42:48.444Z,36.43
2023-07-08T15:45:21.961Z,37.08
2023-07-08T15:47:51.212Z,38.00
2023-07-08T15:50:22.547Z,36.54
2023-07-08T15:52:50.345Z,36.85
2023-07-08T15:55:23.667Z,35.08
2023-07-08T15:57:52.941Z,34.93
2023-07-08T16:00:22.594Z,34.97
2023-07-08T16:02:52.630Z,36.07
2023-07-08T16:05:37.120Z,35.42
2023-07-08T16:08:05.170Z,36.28
2023-07-08T16:10:35.356Z,36.25
2023-07-08T16:13:05.274Z,35.52
2023-07-08T16:15:33.634Z,36.08
2023-07-08T16:18:02.979Z,35.88
2023-07-08T16:20:31.934Z,35.50
2023-07-08T16:23:02.459Z,35.41
2023-07-08T16:25:31.794Z,36.16
2023-07-08T16:27:59.755Z,35.90
2023-07-08T16:30:27.848Z,35.85
2023-07-08T16:32:56.219Z,35.31
2023-07-08T16:35:27.612Z,36.37
2023-07-08T16:37:57.001Z,36.99
2023-07-08T16:40:28.270Z,36.34
2023-07-08T16:42:56.524Z,36.25
2023-07-08T16:45:25.668Z,35.77
2023-07-08T16:47:53.348Z,35.48
2023-07-08T16:50:22.376Z,36.49
2023-07-08T16:52:51.480Z,35.48
2023-07-08T16:55:19.781Z,36.48
2023-07-08T16:57:47.788Z,36.10
2023-07-08T17:00:26.177Z,37.50
2023-07-08T17:02:55.225Z,37.44
2023-07-08T17:05:26.837Z,36.67
2023-07-08T17:07:55.848Z,37.57
2023-07-08T17:10:23.726Z,37.75
2023-07-08T17:12:51.422Z,37.92
2023-07-08T17:15:21.949Z,38.11
2023-07-08T17:17:50.654Z,39.12
2023-07-08T17:20:20.512Z,39.74
2023-07-08T17:22:48.369Z,39.57
2023-07-08T17:25:18.221Z,39.86
2023-07-08T17:27:47.833Z,40.51
2023-07-08T17:30:24.027Z,40.03
2023-07-08T17:32:54.681Z,39.84
2023-07-08T17:35:24.543Z,40.15
2023-07-08T17:37:52.488Z,40.21
2023-07-08T17:40:24.465Z,40.13
2023-07-08T17:42:52.158Z,40.89
2023-07-08T17:45:22.447Z,40.72
2023-07-08T17:47:52.541Z,42.37
2023-07-08T17:50:21.299Z,41.74
2023-07-08T17:52:52.418Z,43.62
2023-07-08T17:55:21.511Z,44.49
2023-07-08T17:57:52.709Z,44.46
2023-07-08T18:00:20.884Z,43.46
2023-07-08T18:02:51.104Z,44.30
2023-07-08T18:05:19.884Z,44.05
2023-07-08T18:07:47.873Z,45.56
2023-07-08T18:10:15.781Z,44.36
2023-07-08T18:12:44.903Z,44.39
2023-07-08T18:15:21.000Z,43.25
2023-07-08T18:17:55.948Z,43.78
2023-07-08T18:20:24.874Z,43.79
2023-07-08T18:22:55.171Z,44.99
2023-07-08T18:25:23.469Z,44.55
2023-07-08T18:27:55.188Z,44.95
2023-07-08T18:30:23.279Z,46.45
2023-07-08T18:32:51.630Z,46.20
2023-07-08T18:35:19.950Z,46.47
2023-07-08T18:37:47.572Z,46.75
2023-07-08T18:40:16.259Z,46.86
2023-07-08T18:42:44.869Z,47.12
2023-07-08T18:46:07.046Z,47.93
2023-07-08T18:49:08.960Z,49.11
2023-07-08T18:51:48.849Z,48.80
2023-07-08T18:54:19.122Z,49.35
2023-07-08T18:56:55.866Z,49.20
2023-07-08T18:59:27.249Z,49.38
2023-07-08T19:01:55.230Z,51.30
2023-07-08T19:04:26.226Z,51.23
2023-07-08T19:06:55.706Z,51.31
2023-07-08T19:09:35.358Z,51.93
2023-07-08T19:12:07.301Z,52.29
2023-07-08T19:14:39.036Z,52.47
2023-07-08T19:17:07.328Z,52.33
2023-07-08T19:19:39.906Z,53.33
2023-07-08T19:22:14.449Z,53.10
2023-07-08T19:24:42.509Z,53.86
2023-07-08T19:27:25.119Z,53.28
2023-07-08T19:30:04.332Z,54.82
2023-07-08T19:32:38.988Z,54.74
2023-07-08T19:35:14.789Z,57.63
2023-07-08T19:37:45.286Z,59.38
2023-07-08T19:40:14.757Z,58.46
2023-07-08T19:42:44.176Z,59.43
2023-07-08T19:45:16.473Z,62.78
2023-07-08T19:47:50.022Z,64.37
2023-07-08T19:50:21.913Z,65.29
2023-07-08T19:52:50.264Z,70.32
2023-07-08T19:55:18.141Z,71.86
2023-07-08T19:57:47.222Z,71.50
2023-07-08T20:00:22.903Z,68.68
2023-07-08T20:02:52.290Z,69.56
2023-07-08T20:05:24.224Z,70.74
2023-07-08T20:07:51.930Z,75.65
2023-07-08T20:10:19.750Z,78.11
2023-07-08T20:12:47.701Z,80.19
2023-07-08T20:15:15.538Z,79.84
2023-07-08T20:17:43.388Z,80.00
2023-07-08T20:20:18.613Z,80.35
2023-07-08T20:22:47.682Z,78.96
2023-07-08T20:25:17.478Z,78.06
2023-07-08T20:27:45.283Z,80.23
2023-07-08T20:30:19.025Z,79.28
2023-07-08T20:32:47.223Z,74.34
2023-07-08T20:35:18.666Z,71.81
2023-07-08T20:37:47.895Z,73.98
2023-07-08T20:40:17.496Z,74.33
2023-07-08T20:42:45.403Z,73.34
2023-07-08T20:45:16.210Z,74.18
2023-07-08T20:47:48.203Z,78.98
2023-07-08T20:50:25.928Z,86.91
2023-07-08T20:52:58.090Z,85.05
2023-07-08T20:55:47.543Z,91.85
2023-07-08T20:58:16.307Z,95.82
2023-07-08T21:01:10.053Z,99.99
2023-07-08T21:03:51.736Z,98.81
2023-07-08T21:10:34.138Z,100.00
2023-07-08T21:17:09.006Z,99.75
2023-07-08T21:20:29.708Z,94.52
2023-07-08T21:26:28.326Z,82.52
2023-07-08T21:28:57.529Z,85.53
2023-07-08T21:31:26.107Z,89.04
2023-07-08T21:34:03.624Z,98.38
2023-07-08T21:36:37.200Z,100.00
2023-07-08T21:39:06.354Z,100.00
2023-07-08T21:41:36.494Z,100.00
2023-07-08T21:44:04.446Z,100.00
2023-07-08T21:46:32.795Z,100.00
2023-07-08T21:49:00.659Z,100.00
2023-07-08T21:51:29.019Z,100.00
2023-07-08T21:53:59.082Z,100.00
2023-07-08T21:56:27.668Z,100.00
2023-07-08T21:59:01.587Z,100.00
2023-07-08T22:01:33.035Z,100.00
2023-07-08T22:04:02.053Z,100.00
2023-07-08T22:06:34.865Z,100.00
2023-07-08T22:09:09.110Z,100.00
2023-07-08T22:11:42.512Z,100.00
2023-07-08T22:14:14.379Z,100.00
2023-07-08T22:16:57.600Z,100.00
2023-07-08T22:19:39.349Z,100.00
2023-07-08T22:22:09.896Z,100.00
2023-07-08T22:24:38.371Z,100.00
2023-07-08T22:27:07.895Z,100.00
2023-07-08T22:29:37.759Z,100.00
2023-07-08T22:32:06.033Z,100.00
2023-07-08T22:34:33.858Z,100.00
2023-07-08T22:37:05.382Z,100.00
2023-07-08T22:39:34.009Z,100.00
2023-07-08T22:42:04.916Z,100.00
2023-07-08T22:44:34.365Z,100.00
2023-07-08T22:47:08.844Z,100.00
2023-07-08T22:49:36.762Z,100.00
2023-07-08T22:52:08.809Z,100.00
2023-07-08T22:54:38.060Z,100.00
2023-07-08T22:57:06.541Z,100.00
2023-07-08T22:59:35.234Z,100.00
2023-07-08T23:02:06.566Z,100.00
2023-07-08T23:04:38.382Z,100.00
2023-07-08T23:07:06.740Z,100.00
2023-07-08T23:09:36.121Z,100.00
2023-07-08T23:12:08.452Z,100.00
2023-07-08T23:14:42.380Z,100.00
2023-07-08T23:17:16.163Z,100.00
2023-07-08T23:19:58.922Z,100.00
2023-07-08T23:22:34.425Z,100.00
2023-07-08T23:25:03.904Z,100.00
2023-07-08T23:27:32.576Z,100.00
2023-07-08T23:30:05.750Z,100.00
2023-07-08T23:32:51.268Z,100.00
2023-07-08T23:35:39.071Z,100.00
2023-07-08T23:38:10.034Z,100.00
2023-07-08T23:40:39.786Z,100.00
2023-07-08T23:43:10.326Z,100.00
2023-07-08T23:45:50.830Z,100.00
2023-07-08T23:48:24.954Z,100.00
2023-07-08T23:51:05.859Z,100.00
2023-07-08T23:53:34.058Z,100.00
2023-07-08T23:56:03.744Z,100.00
2023-07-08T23:58:32.961Z,100.00
